Time;durP1;ratioP1;P1;durP2;ratioP2;P2;SDS_P1;SDS_P2;PMS_P1;PMS_P2;Temp;Humidity;BMP_temperature;BMP_pressure;BME280_temperature;BME280_humidity;BME280_pressure;Samples;Min_cycle;Max_cycle;Signal;HPM_P1;HPM_P2
2022/03/10 00:00:40;;;;;;;;;;;;;;;5.50;41.52;101949.34;5024839;28;19929;-81
2022/03/10 00:03:06;;;;;;;;;;;;;;;5.47;42.08;101944.13;5038301;28;19925;-76
2022/03/10 00:05:31;;;;;;;;;;;;;;;5.53;41.56;101941.69;5032934;28;19928;-76
2022/03/10 00:07:56;;;;;;;;;;;;;;;5.55;41.69;101947.72;5029701;28;19924;-80
2022/03/10 00:10:22;;;;;;;;;;;;;;;5.53;40.81;101948.53;5048790;28;19917;-80
2022/03/10 00:12:48;;;;;;;;;;;;;;;5.57;41.63;101948.59;5030399;28;20360;-80
2022/03/10 00:15:14;;;;;;;;;;;;;;;5.47;41.02;101955.28;5027965;28;19976;-79
2022/03/10 00:17:39;;;;;;;;;;;;;;;5.50;41.23;101956.22;5030017;28;19956;-79
2022/03/10 00:20:04;;;;;;;;;;;;;;;5.45;42.04;101969.88;5038278;28;20381;-81
2022/03/10 00:22:30;;;;;;;;;;;;;;;5.20;41.59;101961.63;5029130;28;19971;-80
2022/03/10 00:24:55;;;;;;;;;;;;;;;5.29;41.75;101965.28;5043157;28;19921;-80
2022/03/10 00:27:20;;;;;;;;;;;;;;;5.16;42.14;101968.44;5026436;28;19936;-77
2022/03/10 00:29:46;;;;;;;;;;;;;;;4.94;41.85;101966.25;5037098;28;19963;-76
2022/03/10 00:32:11;;;;;;;;;;;;;;;5.17;42.56;101965.03;5029350;28;19921;-80
2022/03/10 00:34:37;;;;;;;;;;;;;;;5.28;41.97;101962.66;5031863;28;19917;-81
2022/03/10 00:37:02;;;;;;;;;;;;;;;5.33;42.07;101966.19;5046941;28;19959;-80
2022/03/10 00:39:28;;;;;;;;;;;;;;;5.36;42.88;101961.97;5029297;28;20305;-76
2022/03/10 00:41:53;;;;;;;;;;;;;;;5.27;42.90;101966.06;5019383;28;19979;-80
2022/03/10 00:44:18;;;;;;;;;;;;;;;5.31;42.69;101963.59;5031519;28;19921;-79
2022/03/10 00:46:44;;;;;;;;;;;;;;;5.16;41.98;101967.56;5033075;28;20004;-80
2022/03/10 00:49:09;;;;;;;;;;;;;;;5.08;42.35;101970.00;5035874;28;19973;-80
2022/03/10 00:51:34;;;;;;;;;;;;;;;5.02;42.49;101971.56;5047885;28;19932;-80
2022/03/10 00:53:59;;;;;;;;;;;;;;;4.88;42.46;101977.28;5032845;28;19924;-80
2022/03/10 00:56:25;;;;;;;;;;;;;;;4.84;41.99;101979.78;5018402;28;19971;-76
2022/03/10 00:58:50;;;;;;;;;;;;;;;4.66;43.37;101982.81;5025795;28;20377;-80
2022/03/10 01:01:15;;;;;;;;;;;;;;;4.61;42.86;101981.84;5033668;28;19913;-80
2022/03/10 01:03:41;;;;;;;;;;;;;;;4.77;43.38;101977.88;5047657;28;19926;-80
2022/03/10 01:06:06;;;;;;;;;;;;;;;4.51;43.34;101991.88;5022135;28;19922;-80
2022/03/10 01:08:31;;;;;;;;;;;;;;;4.56;43.51;101991.16;5028063;28;19937;-77
2022/03/10 01:10:57;;;;;;;;;;;;;;;4.44;43.83;101997.69;5021700;28;20016;-80
2022/03/10 01:13:22;;;;;;;;;;;;;;;4.61;43.60;101989.56;5029204;28;19917;-81
2022/03/10 01:15:48;;;;;;;;;;;;;;;4.85;44.21;101996.97;5029331;28;19935;-81
2022/03/10 01:18:14;;;;;;;;;;;;;;;4.80;43.04;101995.97;5035670;28;20377;-80
2022/03/10 01:20:39;;;;;;;;;;;;;;;4.79;43.49;101989.94;5025344;28;19936;-76
2022/03/10 01:23:04;;;;;;;;;;;;;;;4.79;42.88;101987.38;5019683;28;19917;-76
2022/03/10 01:25:30;;;;;;;;;;;;;;;4.94;43.03;101981.69;5026892;28;20259;-75
2022/03/10 01:27:55;;;;;;;;;;;;;;;5.00;42.79;101981.81;5013190;28;19921;-80
2022/03/10 01:30:21;;;;;;;;;;;;;;;4.90;43.16;101979.91;5002572;28;19929;-81
2022/03/10 01:32:47;;;;;;;;;;;;;;;4.79;43.08;101987.38;5009082;28;19917;-80
2022/03/10 01:35:12;;;;;;;;;;;;;;;4.63;43.48;101982.75;5004522;28;19975;-79
2022/03/10 01:37:38;;;;;;;;;;;;;;;4.65;43.35;101983.63;5002290;28;20398;-80
2022/03/10 01:40:07;;;;;;;;;;;;;;;4.66;43.22;101985.38;5030360;28;20374;-81
2022/03/10 01:42:32;;;;;;;;;;;;;;;4.95;43.52;101973.13;5000088;28;19925;-81
2022/03/10 01:44:58;;;;;;;;;;;;;;;4.80;42.75;101981.41;5007759;28;19925;-80
2022/03/10 01:47:23;;;;;;;;;;;;;;;4.85;42.62;101978.94;5013504;28;19921;-76
2022/03/10 01:49:48;;;;;;;;;;;;;;;4.88;42.83;101979.00;5005925;28;20607;-77
2022/03/10 01:52:14;;;;;;;;;;;;;;;4.84;43.42;101974.63;5013023;28;19964;-76
2022/03/10 01:54:40;;;;;;;;;;;;;;;4.81;43.36;101970.28;5010167;28;19929;-80
2022/03/10 01:57:05;;;;;;;;;;;;;;;4.88;43.01;101959.25;5001737;28;19980;-80
2022/03/10 01:59:32;;;;;;;;;;;;;;;4.82;43.65;101966.84;5006307;28;19929;-80
2022/03/10 02:01:57;;;;;;;;;;;;;;;4.89;42.34;101962.72;5008199;28;19918;-79
2022/03/10 02:04:22;;;;;;;;;;;;;;;4.63;43.51;101971.56;5005329;28;20051;-80
2022/03/10 02:06:48;;;;;;;;;;;;;;;4.79;43.03;101961.63;5014229;28;19921;-76
2022/03/10 02:11:58;;;;;;;;;;;;;;;4.88;43.53;101955.84;5011006;28;20397;-76
2022/03/10 02:17:19;;;;;;;;;;;;;;;4.64;43.63;101955.31;5003283;28;20302;-79
2022/03/10 02:19:45;;;;;;;;;;;;;;;4.64;43.55;101957.88;5008194;28;19917;-80
2022/03/10 02:22:12;;;;;;;;;;;;;;;4.51;43.28;101958.44;5010541;28;20012;-76
2022/03/10 02:24:40;;;;;;;;;;;;;;;4.15;44.64;101961.00;5015412;28;20036;-80
2022/03/10 02:27:25;;;;;;;;;;;;;;;4.43;44.13;101959.97;5009154;28;19921;-80
2022/03/10 02:29:51;;;;;;;;;;;;;;;4.20;44.69;101957.72;5003692;28;19974;-79
2022/03/10 02:32:17;;;;;;;;;;;;;;;4.56;43.67;101954.25;5020485;28;19983;-80
2022/03/10 02:34:43;;;;;;;;;;;;;;;4.57;43.36;101953.44;5034471;28;20309;-80
2022/03/10 02:37:08;;;;;;;;;;;;;;;4.54;44.12;101953.34;5014917;28;19931;-80
2022/03/10 02:39:34;;;;;;;;;;;;;;;4.19;44.28;101949.97;4999260;28;20007;-76
2022/03/10 02:42:00;;;;;;;;;;;;;;;4.39;43.99;101953.00;5008527;28;19956;-80
2022/03/10 02:44:25;;;;;;;;;;;;;;;4.33;44.13;101949.47;5006468;28;20398;-80
2022/03/10 02:46:51;;;;;;;;;;;;;;;4.46;43.02;101955.78;5007529;28;19965;-80
2022/03/10 02:49:17;;;;;;;;;;;;;;;4.44;44.17;101956.53;5006157;28;19917;-80
2022/03/10 02:51:43;;;;;;;;;;;;;;;4.40;43.92;101952.19;5010469;28;20024;-76
2022/03/10 02:54:08;;;;;;;;;;;;;;;4.21;43.58;101958.59;5000463;28;20286;-76
2022/03/10 02:56:33;;;;;;;;;;;;;;;4.35;44.16;101963.22;5010829;28;19930;-80
2022/03/10 02:58:59;;;;;;;;;;;;;;;4.14;44.83;101967.84;5016704;28;20017;-79
2022/03/10 03:01:24;;;;;;;;;;;;;;;3.99;44.91;101975.16;5031143;28;19921;-79
2022/03/10 03:03:50;;;;;;;;;;;;;;;4.06;45.01;101971.06;5018853;28;20374;-80
2022/03/10 03:06:15;;;;;;;;;;;;;;;4.04;44.92;101970.16;5008015;28;19921;-80
2022/03/10 03:08:41;;;;;;;;;;;;;;;4.25;44.59;101976.72;5011332;28;19922;-80
2022/03/10 03:11:06;;;;;;;;;;;;;;;4.35;43.65;101970.06;5009404;28;19928;-76
2022/03/10 03:13:32;;;;;;;;;;;;;;;4.46;43.83;101966.06;5027284;28;19925;-80
2022/03/10 03:15:57;;;;;;;;;;;;;;;4.44;44.00;101962.56;5004290;28;20370;-76
2022/03/10 03:18:22;;;;;;;;;;;;;;;4.47;43.46;101962.63;5009199;28;19925;-76
2022/03/10 03:20:48;;;;;;;;;;;;;;;4.35;43.64;101960.66;5008075;28;19922;-76
2022/03/10 03:23:13;;;;;;;;;;;;;;;4.01;43.31;101968.38;5009967;28;19921;-76
2022/03/10 03:25:38;;;;;;;;;;;;;;;4.29;43.67;101957.94;5000630;28;19922;-79
2022/03/10 03:28:04;;;;;;;;;;;;;;;4.26;43.38;101960.44;5013829;28;19952;-80
2022/03/10 03:30:29;;;;;;;;;;;;;;;4.34;43.37;101966.66;5005578;28;19936;-80
2022/03/10 03:32:54;;;;;;;;;;;;;;;4.27;44.11;101962.19;5012358;28;20401;-79
2022/03/10 03:35:20;;;;;;;;;;;;;;;4.18;44.28;101961.09;5009003;28;19929;-79
2022/03/10 03:37:45;;;;;;;;;;;;;;;4.10;43.95;101960.91;5011873;28;19944;-80
2022/03/10 03:40:11;;;;;;;;;;;;;;;4.05;44.40;101969.31;5024332;28;20011;-80
2022/03/10 03:42:37;;;;;;;;;;;;;;;4.21;44.40;101966.31;5016157;28;19930;-78
2022/03/10 03:45:03;;;;;;;;;;;;;;;4.26;44.02;101962.13;5016191;28;20309;-79
2022/03/10 03:47:28;;;;;;;;;;;;;;;4.16;45.00;101965.34;5007014;28;19925;-80
2022/03/10 03:49:54;;;;;;;;;;;;;;;4.20;44.93;101959.41;5009452;28;19930;-79
2022/03/10 03:52:19;;;;;;;;;;;;;;;4.03;44.72;101969.28;5017299;28;19928;-79
2022/03/10 03:54:44;;;;;;;;;;;;;;;4.17;44.75;101967.94;5024218;28;19967;-76
2022/03/10 03:57:10;;;;;;;;;;;;;;;4.18;44.14;101971.38;5010525;28;20013;-76
2022/03/10 03:59:35;;;;;;;;;;;;;;;4.14;44.90;101969.59;5027654;28;20303;-76
2022/03/10 04:02:00;;;;;;;;;;;;;;;4.20;44.46;101977.41;5015710;28;19936;-76
2022/03/10 04:04:26;;;;;;;;;;;;;;;4.26;45.09;101970.72;5009131;28;19929;-80
2022/03/10 04:06:51;;;;;;;;;;;;;;;4.27;44.21;101969.91;5013471;28;20363;-79
2022/03/10 04:09:16;;;;;;;;;;;;;;;4.08;45.34;101982.28;5022846;28;19932;-80
2022/03/10 04:11:42;;;;;;;;;;;;;;;4.12;44.48;101971.22;5001072;28;19933;-80
2022/03/10 04:14:09;;;;;;;;;;;;;;;4.00;44.53;101971.75;5010697;28;19918;-76
2022/03/10 04:16:35;;;;;;;;;;;;;;;3.87;44.39;101964.59;5009770;28;19978;-80
2022/03/10 04:19:00;;;;;;;;;;;;;;;3.83;45.00;101969.59;5004376;28;19965;-80
2022/03/10 04:21:26;;;;;;;;;;;;;;;4.00;45.18;101973.47;5010565;28;19930;-76
2022/03/10 04:23:51;;;;;;;;;;;;;;;4.01;45.08;101981.22;5004696;28;19941;-80
2022/03/10 04:26:17;;;;;;;;;;;;;;;3.95;45.00;101975.94;5003327;28;20357;-79
2022/03/10 04:28:42;;;;;;;;;;;;;;;3.63;45.94;101985.34;5015185;28;19925;-80
2022/03/10 04:31:07;;;;;;;;;;;;;;;3.62;45.05;101981.06;5013503;28;19922;-79
2022/03/10 04:33:33;;;;;;;;;;;;;;;3.58;45.41;101979.22;5014593;28;19922;-79
2022/03/10 04:35:59;;;;;;;;;;;;;;;3.34;46.43;101985.44;5012422;28;20326;-76
2022/03/10 04:38:24;;;;;;;;;;;;;;;3.62;46.01;101978.50;5013525;28;19944;-76
2022/03/10 04:40:51;;;;;;;;;;;;;;;3.22;46.60;101988.50;5017089;28;20460;-80
2022/03/10 04:43:17;;;;;;;;;;;;;;;3.74;46.17;101985.66;5010451;28;19917;-81
2022/03/10 04:45:42;;;;;;;;;;;;;;;3.96;45.40;101994.81;5011329;28;20297;-81
2022/03/10 04:48:09;;;;;;;;;;;;;;;3.99;45.43;101992.31;5009302;28;19967;-80
2022/03/10 04:50:34;;;;;;;;;;;;;;;3.84;45.50;101995.34;5009855;28;19995;-79
2022/03/10 04:53:00;;;;;;;;;;;;;;;3.62;45.78;102000.75;5008556;28;20286;-80
2022/03/10 04:55:25;;;;;;;;;;;;;;;3.78;45.96;102008.88;5009746;28;20023;-80
2022/03/10 04:57:51;;;;;;;;;;;;;;;3.83;45.96;101996.19;5018334;28;19928;-80
2022/03/10 05:00:18;;;;;;;;;;;;;;;3.76;45.16;102004.53;5011873;28;19965;-79
2022/03/10 05:02:44;;;;;;;;;;;;;;;4.08;44.88;102008.00;5010323;28;19925;-80
2022/03/10 05:05:12;;;;;;;;;;;;;;;3.65;45.75;102003.41;5009206;28;20008;-80
2022/03/10 05:07:38;;;;;;;;;;;;;;;3.78;44.71;102001.19;5013695;28;19920;-80
2022/03/10 05:10:04;;;;;;;;;;;;;;;3.22;46.10;102006.47;5006798;28;19921;-80
2022/03/10 05:12:29;;;;;;;;;;;;;;;3.59;45.11;102009.25;5007435;28;19917;-80
2022/03/10 05:14:54;;;;;;;;;;;;;;;3.55;45.65;102011.69;5008934;28;19929;-80
2022/03/10 05:17:21;;;;;;;;;;;;;;;3.13;46.04;102014.78;5005769;28;19980;-76
2022/03/10 05:19:46;;;;;;;;;;;;;;;3.25;45.91;102011.69;5006691;28;19921;-76
2022/03/10 05:22:11;;;;;;;;;;;;;;;3.38;46.00;102015.47;5012312;28;20409;-80
2022/03/10 05:24:37;;;;;;;;;;;;;;;3.31;46.01;102014.44;5011035;28;20374;-79
2022/03/10 05:27:02;;;;;;;;;;;;;;;3.32;46.07;102013.63;5011414;28;20008;-80
2022/03/10 05:29:28;;;;;;;;;;;;;;;3.43;45.94;102012.22;5011323;28;19932;-80
2022/03/10 05:31:53;;;;;;;;;;;;;;;3.13;47.16;102017.34;5007966;28;19921;-81
2022/03/10 05:34:18;;;;;;;;;;;;;;;3.32;46.47;102005.03;5013653;28;19917;-80
2022/03/10 05:36:44;;;;;;;;;;;;;;;3.56;46.52;102013.44;5007926;28;19922;-79
2022/03/10 05:39:09;;;;;;;;;;;;;;;3.73;45.74;102014.75;5006743;28;19975;-76
2022/03/10 05:41:35;;;;;;;;;;;;;;;3.78;46.07;102018.31;5010374;28;19925;-76
2022/03/10 05:44:00;;;;;;;;;;;;;;;3.81;45.81;102008.13;5000803;28;19996;-81
2022/03/10 05:46:26;;;;;;;;;;;;;;;3.59;45.96;102016.06;5011760;28;19953;-76
2022/03/10 05:48:51;;;;;;;;;;;;;;;3.21;46.25;102015.91;5012284;28;20375;-76
2022/03/10 05:51:16;;;;;;;;;;;;;;;3.21;47.74;102027.84;5024955;28;19917;-80
2022/03/10 05:53:42;;;;;;;;;;;;;;;3.52;46.36;102027.00;5006202;28;20498;-76
2022/03/10 05:56:07;;;;;;;;;;;;;;;3.39;46.03;102024.94;5008679;28;20043;-76
2022/03/10 05:58:33;;;;;;;;;;;;;;;3.29;45.90;102018.66;5009187;28;19921;-79
2022/03/10 06:00:58;;;;;;;;;;;;;;;3.49;45.91;102029.50;5007160;28;20382;-81
2022/03/10 06:03:23;;;;;;;;;;;;;;;3.78;45.42;102024.31;5007653;28;19929;-80
2022/03/10 06:05:49;;;;;;;;;;;;;;;3.84;45.07;102023.63;5005742;28;19937;-80
2022/03/10 06:08:14;;;;;;;;;;;;;;;3.64;46.06;102025.66;5007859;28;19933;-79
2022/03/10 06:10:40;;;;;;;;;;;;;;;3.89;45.83;102031.44;5007517;28;20012;-80
2022/03/10 06:13:06;;;;;;;;;;;;;;;3.93;45.43;102023.84;5010654;28;20041;-80
2022/03/10 06:15:31;;;;;;;;;;;;;;;3.73;44.97;102025.03;5027644;28;20020;-80
2022/03/10 06:17:56;;;;;;;;;;;;;;;3.52;46.29;102021.88;5022410;28;20007;-80
2022/03/10 06:20:22;;;;;;;;;;;;;;;3.65;45.96;102026.53;5011975;28;19929;-80
2022/03/10 06:22:47;;;;;;;;;;;;;;;3.41;47.06;102025.84;5010653;28;20014;-80
2022/03/10 06:25:13;;;;;;;;;;;;;;;3.49;46.54;102030.38;5019757;28;19921;-80
2022/03/10 06:27:38;;;;;;;;;;;;;;;3.59;46.46;102029.81;5013199;28;19944;-80
2022/03/10 06:30:04;;;;;;;;;;;;;;;3.75;46.48;102024.22;5019353;28;19922;-80
2022/03/10 06:32:29;;;;;;;;;;;;;;;3.83;46.45;102037.31;5019178;28;19922;-80
2022/03/10 06:34:56;;;;;;;;;;;;;;;3.60;47.10;102039.25;5013475;28;19921;-79
2022/03/10 06:37:21;;;;;;;;;;;;;;;3.83;46.18;102041.56;5007169;28;19944;-80
2022/03/10 06:39:47;;;;;;;;;;;;;;;3.81;46.25;102034.66;5007328;28;20391;-80
2022/03/10 06:42:12;;;;;;;;;;;;;;;3.86;46.54;102044.22;5007376;28;20329;-77
2022/03/10 06:44:38;;;;;;;;;;;;;;;3.80;47.48;102050.06;5007540;28;19922;-80
2022/03/10 06:47:04;;;;;;;;;;;;;;;3.99;47.18;102047.13;5029632;28;19921;-80
2022/03/10 06:49:30;;;;;;;;;;;;;;;4.07;46.64;102045.69;5017540;28;19975;-80
2022/03/10 06:51:55;;;;;;;;;;;;;;;4.16;46.49;102050.19;5019898;28;19956;-80
2022/03/10 06:54:20;;;;;;;;;;;;;;;3.99;46.43;102052.28;5014159;28;19921;-79
2022/03/10 06:56:46;;;;;;;;;;;;;;;4.10;46.38;102055.19;5018590;28;19925;-80
2022/03/10 06:59:12;;;;;;;;;;;;;;;4.10;45.86;102050.03;5008286;28;19923;-81
2022/03/10 07:01:37;;;;;;;;;;;;;;;4.14;47.17;102052.72;5019281;28;19963;-81
2022/03/10 07:04:03;;;;;;;;;;;;;;;3.87;46.65;102056.25;5014215;28;20378;-81
2022/03/10 07:06:28;;;;;;;;;;;;;;;4.10;46.09;102055.19;5017943;28;20398;-81
2022/03/10 07:08:53;;;;;;;;;;;;;;;4.28;45.90;102047.94;5014943;28;19925;-81
2022/03/10 07:11:19;;;;;;;;;;;;;;;4.50;46.47;102063.06;5013801;28;19983;-81
2022/03/10 07:13:45;;;;;;;;;;;;;;;4.50;46.34;102057.91;5019149;28;19917;-81
2022/03/10 07:16:10;;;;;;;;;;;;;;;4.33;47.36;102057.50;5017068;28;19944;-76
2022/03/10 07:18:36;;;;;;;;;;;;;;;4.46;46.22;102058.69;5016503;28;20401;-80
2022/03/10 07:21:02;;;;;;;;;;;;;;;4.46;46.32;102056.09;5015440;28;19925;-77
2022/03/10 07:23:28;;;;;;;;;;;;;;;4.48;47.35;102058.69;5009425;28;19997;-76
2022/03/10 07:25:53;;;;;;;;;;;;;;;4.46;46.81;102060.38;5014122;28;19926;-80
2022/03/10 07:28:19;;;;;;;;;;;;;;;4.52;46.71;102058.84;5009199;28;20092;-80
2022/03/10 07:30:44;;;;;;;;;;;;;;;4.62;46.85;102065.91;5011168;28;20075;-80
2022/03/10 07:33:09;;;;;;;;;;;;;;;4.64;47.49;102053.09;5011023;28;19925;-81
2022/03/10 07:35:34;;;;;;;;;;;;;;;4.47;46.47;102062.97;5018302;28;19996;-81
2022/03/10 07:38:00;;;;;;;;;;;;;;;4.67;47.08;102058.31;5012514;28;19929;-81
2022/03/10 07:40:26;;;;;;;;;;;;;;;4.65;46.62;102058.28;5033129;28;19925;-81
2022/03/10 07:42:51;;;;;;;;;;;;;;;4.72;47.03;102049.00;5008414;28;19918;-80
2022/03/10 07:45:17;;;;;;;;;;;;;;;4.83;46.70;102058.69;5025209;28;19925;-80
2022/03/10 07:47:42;;;;;;;;;;;;;;;4.73;46.09;102058.47;5011735;28;20263;-80
2022/03/10 07:50:08;;;;;;;;;;;;;;;4.77;45.32;102061.13;5027958;28;19921;-80
2022/03/10 07:52:33;;;;;;;;;;;;;;;5.02;46.66;102061.69;5013381;28;19909;-80
2022/03/10 07:54:59;;;;;;;;;;;;;;;4.95;47.47;102062.38;5011769;28;20346;-79
2022/03/10 07:57:24;;;;;;;;;;;;;;;4.95;48.01;102060.69;5013583;28;20671;-80
2022/03/10 07:59:50;;;;;;;;;;;;;;;5.01;48.25;102058.25;5010384;28;19987;-80
2022/03/10 08:02:15;;;;;;;;;;;;;;;5.04;46.87;102053.16;5032940;28;19929;-77
2022/03/10 08:04:41;;;;;;;;;;;;;;;5.13;47.78;102057.66;5022453;28;19914;-79
2022/03/10 08:07:06;;;;;;;;;;;;;;;5.13;45.87;102057.66;5009617;28;19976;-80
2022/03/10 08:09:31;;;;;;;;;;;;;;;5.21;45.73;102049.25;5012179;28;19933;-80
2022/03/10 08:11:57;;;;;;;;;;;;;;;5.38;46.00;102047.91;5008791;28;20330;-80
2022/03/10 08:14:22;;;;;;;;;;;;;;;5.32;46.21;102047.78;5009343;28;19917;-80
2022/03/10 08:16:50;;;;;;;;;;;;;;;5.35;46.00;102042.69;5008286;28;19928;-80
2022/03/10 08:19:16;;;;;;;;;;;;;;;5.61;43.94;102042.31;5037824;28;19924;-80
2022/03/10 08:21:42;;;;;;;;;;;;;;;5.62;44.93;102049.22;5031052;28;19917;-80
2022/03/10 08:24:07;;;;;;;;;;;;;;;5.77;44.50;102044.38;5036161;28;20014;-81
2022/03/10 08:26:32;;;;;;;;;;;;;;;5.85;43.41;102038.50;5048489;28;19925;-81
2022/03/10 08:28:57;;;;;;;;;;;;;;;5.87;43.59;102031.66;5048159;28;20328;-81
2022/03/10 08:31:23;;;;;;;;;;;;;;;5.85;42.56;102023.03;5038583;28;19960;-80
2022/03/10 08:33:50;;;;;;;;;;;;;;;6.08;42.40;102026.03;5051795;28;20015;-81
2022/03/10 08:36:15;;;;;;;;;;;;;;;6.20;43.03;102022.78;5037652;28;20509;-81
2022/03/10 08:38:41;;;;;;;;;;;;;;;6.14;42.47;102020.97;5035428;28;19961;-81
2022/03/10 08:41:06;;;;;;;;;;;;;;;6.15;43.11;102027.88;5015686;28;20282;-81
2022/03/10 08:43:32;;;;;;;;;;;;;;;6.17;42.68;102022.72;5041263;28;20297;-81
2022/03/10 08:45:58;;;;;;;;;;;;;;;6.21;42.87;102020.25;5043633;28;19929;-81
2022/03/10 08:48:24;;;;;;;;;;;;;;;6.21;42.23;102007.34;5040523;28;19921;-79
2022/03/10 08:50:49;;;;;;;;;;;;;;;6.23;43.96;102017.66;5033534;28;19979;-80
2022/03/10 08:53:14;;;;;;;;;;;;;;;6.16;43.75;102014.09;5027249;28;19982;-76
2022/03/10 08:55:40;;;;;;;;;;;;;;;6.27;44.23;102022.91;5033875;28;20405;-81
2022/03/10 08:58:05;;;;;;;;;;;;;;;6.24;43.23;102014.25;5033381;28;20442;-80
2022/03/10 09:00:31;;;;;;;;;;;;;;;6.30;43.13;102015.22;5029538;28;19929;-80
2022/03/10 09:02:56;;;;;;;;;;;;;;;6.39;42.71;102011.94;5029618;28;19921;-80
2022/03/10 09:05:22;;;;;;;;;;;;;;;6.56;41.80;102008.78;5044052;28;19944;-81
2022/03/10 09:07:47;;;;;;;;;;;;;;;6.79;42.50;102010.81;5042725;28;19920;-81
2022/03/10 09:10:13;;;;;;;;;;;;;;;6.76;41.03;102005.63;5024139;28;20306;-81
2022/03/10 09:12:39;;;;;;;;;;;;;;;6.82;41.21;102006.56;5038558;28;19987;-80
2022/03/10 09:15:05;;;;;;;;;;;;;;;7.02;39.88;101994.78;5022617;28;19965;-80
2022/03/10 09:17:30;;;;;;;;;;;;;;;6.85;40.55;102000.59;5027686;28;20055;-81
2022/03/10 09:19:56;;;;;;;;;;;;;;;6.90;40.46;101998.94;5026392;28;19917;-80
2022/03/10 09:22:22;;;;;;;;;;;;;;;6.91;41.17;102001.53;5035314;28;20369;-80
2022/03/10 09:24:48;;;;;;;;;;;;;;;6.85;41.61;102003.16;5025248;28;20419;-76
2022/03/10 09:27:13;;;;;;;;;;;;;;;7.14;39.94;102005.28;5026699;28;19929;-76
2022/03/10 09:29:38;;;;;;;;;;;;;;;7.31;39.86;102005.50;5045798;28;19925;-76
2022/03/10 09:32:04;;;;;;;;;;;;;;;7.33;43.72;101997.75;5030512;28;19920;-80
2022/03/10 09:34:29;;;;;;;;;;;;;;;7.36;39.69;101997.81;5020872;28;20389;-80
2022/03/10 09:36:54;;;;;;;;;;;;;;;7.33;38.89;101997.75;5018372;28;19922;-76
2022/03/10 09:39:20;;;;;;;;;;;;;;;7.40;38.63;101992.69;5026726;28;19989;-81
2022/03/10 09:41:45;;;;;;;;;;;;;;;7.82;45.68;101992.25;5023283;28;19945;-81
2022/03/10 09:44:13;;;;;;;;;;;;;;;7.68;37.97;101988.66;5023304;28;19965;-76
2022/03/10 09:46:38;;;;;;;;;;;;;;;7.81;43.49;101979.31;5021452;28;19917;-81
2022/03/10 09:49:03;;;;;;;;;;;;;;;7.59;37.11;101975.66;5034552;28;19921;-76
2022/03/10 09:51:29;;;;;;;;;;;;;;;7.54;38.22;101967.84;5034047;28;19964;-80
2022/03/10 09:53:54;;;;;;;;;;;;;;;8.03;42.35;101981.25;5042024;28;19921;-81
2022/03/10 09:56:20;;;;;;;;;;;;;;;8.08;44.99;101974.41;5024902;28;19948;-76
2022/03/10 09:58:45;;;;;;;;;;;;;;;7.95;36.75;101967.38;5032222;28;20430;-81
2022/03/10 10:01:11;;;;;;;;;;;;;;;8.03;39.50;101969.16;5022219;28;19921;-80
2022/03/10 10:03:36;;;;;;;;;;;;;;;7.94;37.71;101965.66;5022500;28;19917;-80
2022/03/10 10:06:02;;;;;;;;;;;;;;;7.87;38.05;101977.66;5030279;28;19921;-80
2022/03/10 10:08:30;;;;;;;;;;;;;;;8.19;43.30;101972.75;5039113;28;19924;-77
2022/03/10 10:10:56;;;;;;;;;;;;;;;8.15;37.99;101977.03;5041181;28;19921;-80
2022/03/10 10:13:28;;;;;;;;;;;;;;;8.22;37.69;101965.91;5033347;28;19921;-80
2022/03/10 10:16:07;;;;;;;;;;;;;;;8.05;37.35;101972.66;5031558;28;20579;-81
2022/03/10 10:18:33;;;;;;;;;;;;;;;8.24;38.17;101960.72;5018021;28;19949;-81
2022/03/10 10:20:58;;;;;;;;;;;;;;;8.19;36.63;101958.09;5037320;28;19916;-77
2022/03/10 10:23:41;;;;;;;;;;;;;;;8.27;39.21;101964.19;5041901;28;19951;-80
2022/03/10 10:26:11;;;;;;;;;;;;;;;8.45;38.98;101960.91;5027449;28;20430;-80
2022/03/10 10:28:38;;;;;;;;;;;;;;;8.39;37.52;101947.03;5027841;28;20412;-80
2022/03/10 10:31:05;;;;;;;;;;;;;;;8.32;36.30;101947.84;5034553;28;20045;-80
2022/03/10 10:33:31;;;;;;;;;;;;;;;8.37;37.37;101949.63;5032107;28;20415;-80
2022/03/10 10:36:16;;;;;;;;;;;;;;;8.30;36.76;101946.94;5036428;28;20287;-80
2022/03/10 10:38:43;;;;;;;;;;;;;;;8.49;37.46;101944.53;5048480;28;19928;-80
2022/03/10 10:41:15;;;;;;;;;;;;;;;8.56;38.66;101945.44;5040410;28;19925;-80
2022/03/10 10:43:41;;;;;;;;;;;;;;;8.76;43.93;101936.06;5020112;28;19909;-80
2022/03/10 10:46:06;;;;;;;;;;;;;;;8.81;40.06;101934.34;5029666;28;19920;-81
2022/03/10 10:48:44;;;;;;;;;;;;;;;8.86;39.10;101934.38;5030103;28;20596;-80
2022/03/10 10:51:10;;;;;;;;;;;;;;;8.83;35.41;101930.03;5032553;28;19975;-80
2022/03/10 10:53:39;;;;;;;;;;;;;;;8.84;35.76;101923.13;5033690;28;20289;-77
2022/03/10 10:56:04;;;;;;;;;;;;;;;8.89;34.50;101922.28;5032750;28;19929;-80
2022/03/10 10:58:30;;;;;;;;;;;;;;;8.83;41.95;101924.84;5031544;28;19924;-80
2022/03/10 11:00:55;;;;;;;;;;;;;;;8.96;37.27;101916.28;5026506;28;19929;-80
2022/03/10 11:03:20;;;;;;;;;;;;;;;8.90;38.99;101916.25;5026171;28;20079;-80
2022/03/10 11:05:47;;;;;;;;;;;;;;;8.92;37.34;101911.94;5045112;28;20378;-77
2022/03/10 11:08:12;;;;;;;;;;;;;;;8.90;35.75;101911.06;5049753;28;20499;-80
2022/03/10 11:10:38;;;;;;;;;;;;;;;9.07;37.80;101906.81;5022824;28;19921;-80
2022/03/10 11:13:04;;;;;;;;;;;;;;;9.20;42.98;101908.59;5038019;28;19929;-80
2022/03/10 11:15:29;;;;;;;;;;;;;;;9.14;40.24;101902.50;5040293;28;19939;-81
2022/03/10 11:17:55;;;;;;;;;;;;;;;9.16;37.15;101898.19;5032934;28;20460;-81
2022/03/10 11:20:21;;;;;;;;;;;;;;;9.30;36.54;101897.38;5040839;28;20408;-76
2022/03/10 11:23:00;;;;;;;;;;;;;;;9.29;36.94;101892.19;5028296;28;19933;-81
2022/03/10 11:25:44;;;;;;;;;;;;;;;9.33;35.96;101896.53;5027954;28;20388;-80
2022/03/10 11:28:23;;;;;;;;;;;;;;;9.21;34.75;101891.31;5030229;28;20314;-80
2022/03/10 11:30:50;;;;;;;;;;;;;;;9.24;40.57;101891.31;5027743;28;20321;-80
2022/03/10 11:33:16;;;;;;;;;;;;;;;9.34;42.49;101887.84;5033321;28;19917;-80
2022/03/10 11:35:45;;;;;;;;;;;;;;;9.38;39.96;101878.38;5031693;28;20409;-80
2022/03/10 11:38:12;;;;;;;;;;;;;;;9.48;39.35;101881.00;5041893;28;19921;-81
2022/03/10 11:40:39;;;;;;;;;;;;;;;9.47;39.00;101873.19;5030148;28;19920;-81
2022/03/10 11:43:04;;;;;;;;;;;;;;;9.48;40.04;101867.16;5025355;28;20522;-81
2022/03/10 11:45:33;;;;;;;;;;;;;;;9.39;35.26;101861.94;5028422;28;20401;-80
2022/03/10 11:48:17;;;;;;;;;;;;;;;9.42;37.33;101864.56;5031947;28;19918;-81
2022/03/10 11:50:42;;;;;;;;;;;;;;;9.52;40.49;101867.16;5020167;28;19974;-80
2022/03/10 11:53:12;;;;;;;;;;;;;;;9.51;36.53;101860.25;5028719;28;19932;-80
2022/03/10 11:55:38;;;;;;;;;;;;;;;9.56;41.23;101862.81;5033826;28;19944;-80
2022/03/10 11:58:05;;;;;;;;;;;;;;;9.60;35.49;101854.19;5039639;28;19917;-80
2022/03/10 12:00:39;;;;;;;;;;;;;;;9.56;32.97;101850.72;5044405;28;19921;-80
2022/03/10 12:03:06;;;;;;;;;;;;;;;9.55;39.99;101856.78;5035380;28;19932;-80
2022/03/10 12:05:55;;;;;;;;;;;;;;;9.56;39.91;101845.53;5035408;28;20385;-80
2022/03/10 12:08:21;;;;;;;;;;;;;;;9.68;42.80;101852.47;5029737;28;19960;-80
2022/03/10 12:10:49;;;;;;;;;;;;;;;9.68;35.56;101839.50;5035520;28;19963;-76
2022/03/10 12:13:34;;;;;;;;;;;;;;;9.76;37.66;101838.63;5025813;28;19924;-80
2022/03/10 12:16:01;;;;;;;;;;;;;;;9.78;36.03;101834.28;5025458;28;19953;-81
2022/03/10 12:18:31;;;;;;;;;;;;;;;9.80;41.84;101835.16;5037983;28;19917;-80
2022/03/10 12:20:57;;;;;;;;;;;;;;;9.92;41.77;101839.50;5037654;28;19999;-81
2022/03/10 12:23:25;;;;;;;;;;;;;;;9.81;37.53;101833.44;5046778;28;19921;-81
2022/03/10 12:26:02;;;;;;;;;;;;;;;9.92;41.35;101838.63;5026717;28;20313;-76
2022/03/10 12:28:35;;;;;;;;;;;;;;;10.05;41.26;101833.41;5029953;28;19920;-80
2022/03/10 12:31:03;;;;;;;;;;;;;;;10.06;41.14;101819.56;5026464;28;19953;-80
2022/03/10 12:33:29;;;;;;;;;;;;;;;10.03;36.50;101819.56;5035450;28;19925;-80
2022/03/10 12:35:55;;;;;;;;;;;;;;;9.95;38.20;101817.88;5028542;28;19948;-80
2022/03/10 12:38:34;;;;;;;;;;;;;;;9.94;42.40;101817.00;5048393;28;19932;-80
2022/03/10 12:40:59;;;;;;;;;;;;;;;9.93;40.07;101811.81;5028346;28;19917;-80
2022/03/10 12:43:26;;;;;;;;;;;;;;;9.97;36.04;101796.22;5034948;28;19925;-80
2022/03/10 12:45:52;;;;;;;;;;;;;;;9.96;35.57;101791.88;5033760;28;19921;-81